createdAt,value
2019-04-27T00:01:27.191Z,96585.61
2019-04-27T00:04:04.100Z,96582.48
2019-04-27T00:06:38.235Z,96589.82
2019-04-27T00:09:11.626Z,96594.66
2019-04-27T00:11:45.546Z,96591.54
2019-04-27T00:14:15.046Z,96595.90
2019-04-27T00:16:54.582Z,96599.73
2019-04-27T00:19:36.842Z,96603.88
2019-04-27T00:22:12.977Z,96613.34
2019-04-27T00:24:44.212Z,96623.06
2019-04-27T00:27:13.362Z,96621.42
2019-04-27T00:29:43.159Z,96624.47
2019-04-27T00:32:13.176Z,96617.23
2019-04-27T00:34:43.155Z,96624.86
2019-04-27T00:37:23.766Z,96632.06
2019-04-27T00:40:05.638Z,96630.72
2019-04-27T00:42:35.729Z,96625.04
2019-04-27T00:45:06.217Z,96617.83
2019-04-27T00:47:35.061Z,96610.28
2019-04-27T00:50:04.779Z,96601.91
2019-04-27T00:52:34.872Z,96614.30
2019-04-27T00:55:04.428Z,96611.73
2019-04-27T00:57:43.628Z,96608.04
2019-04-27T01:00:16.859Z,96601.73
2019-04-27T01:02:47.287Z,96600.50
2019-04-27T01:05:17.488Z,96597.16
2019-04-27T01:07:46.207Z,96593.13
2019-04-27T01:10:14.833Z,96585.97
2019-04-27T01:12:43.319Z,96583.36
2019-04-27T01:15:13.699Z,96589.03
2019-04-27T01:17:42.398Z,96589.33
2019-04-27T01:20:11.324Z,96588.89
2019-04-27T01:22:39.911Z,96586.72
2019-04-27T01:25:08.890Z,96583.02
2019-04-27T01:27:39.404Z,96577.84
2019-04-27T01:30:11.023Z,96571.64
2019-04-27T01:32:39.509Z,96568.96
2019-04-27T01:35:08.692Z,96574.94
2019-04-27T01:37:38.665Z,96575.14
2019-04-27T01:40:07.695Z,96570.73
2019-04-27T01:42:36.250Z,96567.11
2019-04-27T01:45:08.564Z,96566.50
2019-04-27T01:47:37.039Z,96564.09
2019-04-27T01:50:08.765Z,96563.17
2019-04-27T01:52:38.527Z,96565.92
2019-04-27T01:55:08.644Z,96568.39
2019-04-27T01:57:38.628Z,96566.62
2019-04-27T02:00:19.267Z,96555.90
2019-04-27T02:02:49.660Z,96555.27
2019-04-27T02:05:19.911Z,96553.19
2019-04-27T02:07:49.103Z,96554.41
2019-04-27T02:10:19.122Z,96554.66
2019-04-27T02:12:48.710Z,96556.31
2019-04-27T02:15:19.103Z,96553.19
2019-04-27T02:17:49.017Z,96563.70
2019-04-27T02:20:19.635Z,96565.45
2019-04-27T02:22:48.484Z,96567.95
2019-04-27T02:25:18.975Z,96559.60
2019-04-27T02:27:50.528Z,96553.21
2019-04-27T02:30:26.324Z,96546.41
2019-04-27T02:33:05.476Z,96540.73
2019-04-27T02:35:33.970Z,96534.92
2019-04-27T02:38:02.533Z,96532.17
2019-04-27T02:40:52.021Z,96530.00
2019-04-27T02:43:22.283Z,96534.41
2019-04-27T02:45:51.004Z,96529.30
2019-04-27T02:48:20.075Z,96529.91
2019-04-27T02:50:50.322Z,96530.09
2019-04-27T02:53:20.511Z,96531.05
2019-04-27T02:55:49.935Z,96517.54
2019-04-27T02:58:21.579Z,96521.73
2019-04-27T03:00:50.122Z,96521.39
2019-04-27T03:03:20.406Z,96522.73
2019-04-27T03:05:50.278Z,96518.01
2019-04-27T03:08:20.078Z,96518.13
2019-04-27T03:10:50.303Z,96510.80
2019-04-27T03:13:20.793Z,96508.09
2019-04-27T03:16:12.998Z,96514.56
2019-04-27T03:19:10.090Z,96512.55
2019-04-27T03:21:26.007Z,96510.11
2019-04-27T03:23:56.353Z,96516.30
2019-04-27T03:26:26.608Z,96526.84
2019-04-27T03:28:55.192Z,96525.71
2019-04-27T03:31:23.860Z,96528.59
2019-04-27T03:33:58.686Z,96536.88
2019-04-27T03:36:22.851Z,96548.85
2019-04-27T03:38:51.503Z,96542.66
2019-04-27T03:41:20.141Z,96554.85
2019-04-27T03:43:50.346Z,96559.00
2019-04-27T03:46:20.433Z,96558.19
2019-04-27T03:48:49.826Z,96559.84
2019-04-27T03:51:22.849Z,96566.05
2019-04-27T03:53:56.972Z,96573.14
2019-04-27T03:56:25.024Z,96567.34
2019-04-27T03:59:10.449Z,96560.11
2019-04-27T04:01:39.707Z,96570.75
2019-04-27T04:04:10.485Z,96566.07
2019-04-27T04:06:40.041Z,96564.09
2019-04-27T04:09:10.455Z,96564.80
2019-04-27T04:11:40.620Z,96563.55
2019-04-27T04:14:20.252Z,96561.23
2019-04-27T04:16:53.583Z,96555.45
2019-04-27T04:19:22.089Z,96554.55
2019-04-27T04:21:50.600Z,96558.45
2019-04-27T04:24:19.942Z,96561.30
2019-04-27T04:26:50.299Z,96558.08
2019-04-27T04:29:20.234Z,96556.03
2019-04-27T04:31:50.298Z,96555.33
2019-04-27T04:34:19.959Z,96552.55
2019-04-27T04:36:50.374Z,96557.28
2019-04-27T04:39:19.811Z,96559.34
2019-04-27T04:42:06.013Z,96558.39
2019-04-27T04:44:54.133Z,96554.02
2019-04-27T04:47:30.798Z,96554.85
2019-04-27T04:50:08.463Z,96553.45
2019-04-27T04:52:29.623Z,96552.88
2019-04-27T04:54:59.328Z,96549.04
2019-04-27T04:57:29.941Z,96550.35
2019-04-27T04:59:59.364Z,96552.20
2019-04-27T05:02:29.316Z,96552.10
2019-04-27T05:04:59.091Z,96554.55
2019-04-27T05:07:27.612Z,96553.88
2019-04-27T05:09:56.119Z,96541.69
2019-04-27T05:12:24.621Z,96547.22
2019-04-27T05:14:53.134Z,96549.19
2019-04-27T05:17:21.624Z,96552.47
2019-04-27T05:19:50.807Z,96544.76
2019-04-27T05:22:19.607Z,96541.98
2019-04-27T05:24:49.830Z,96538.70
2019-04-27T05:27:19.142Z,96535.59
2019-04-27T05:29:48.856Z,96529.13
2019-04-27T05:32:18.874Z,96527.37
2019-04-27T05:34:49.521Z,96512.22
2019-04-27T05:37:27.560Z,96509.55
2019-04-27T05:39:48.759Z,96518.73
2019-04-27T05:42:19.987Z,96521.42
2019-04-27T05:45:15.345Z,96514.71
2019-04-27T05:47:48.477Z,96515.55
2019-04-27T05:50:18.280Z,96507.93
2019-04-27T05:52:49.521Z,96508.33
2019-04-27T05:55:19.207Z,96502.36
2019-04-27T05:57:49.030Z,96507.53
2019-04-27T06:00:20.268Z,96507.02
2019-04-27T06:02:48.861Z,96502.28
2019-04-27T06:05:18.925Z,96499.48
2019-04-27T06:07:48.765Z,96493.71
2019-04-27T06:10:17.371Z,96498.45
2019-04-27T06:12:45.898Z,96498.45
2019-04-27T06:15:15.730Z,96508.16
2019-04-27T06:17:44.254Z,96517.87
2019-04-27T06:20:13.102Z,96513.45
2019-04-27T06:22:43.197Z,96517.78
2019-04-27T06:25:12.158Z,96532.58
2019-04-27T06:27:40.650Z,96533.70
2019-04-27T06:30:09.642Z,96534.30
2019-04-27T06:32:39.522Z,96537.93
2019-04-27T06:35:12.093Z,96547.54
2019-04-27T06:37:39.382Z,96544.53
2019-04-27T06:40:09.765Z,96549.83
2019-04-27T06:42:39.845Z,96550.97
2019-04-27T06:45:13.026Z,96551.27
2019-04-27T06:47:40.921Z,96547.22
2019-04-27T06:50:10.290Z,96553.92
2019-04-27T06:52:39.121Z,96556.72
2019-04-27T06:55:09.354Z,96557.25
2019-04-27T06:57:39.158Z,96555.28
2019-04-27T07:00:09.058Z,96558.98
2019-04-27T07:02:39.369Z,96560.11
2019-04-27T07:05:08.932Z,96564.98
2019-04-27T07:07:39.606Z,96563.55
2019-04-27T07:10:08.729Z,96561.88
2019-04-27T07:12:41.103Z,96565.38
2019-04-27T07:15:11.624Z,96561.84
2019-04-27T07:17:40.174Z,96559.70
2019-04-27T07:20:09.165Z,96566.92
2019-04-27T07:22:39.556Z,96565.87
2019-04-27T07:25:09.019Z,96566.05
2019-04-27T07:27:39.423Z,96566.71
2019-04-27T07:30:11.902Z,96565.16
2019-04-27T07:32:39.092Z,96563.63
2019-04-27T07:35:09.638Z,96563.59
2019-04-27T07:37:39.318Z,96560.38
2019-04-27T07:40:09.103Z,96559.20
2019-04-27T07:42:40.876Z,96562.20
2019-04-27T07:45:15.444Z,96556.97
2019-04-27T07:47:45.748Z,96562.08
2019-04-27T07:50:14.470Z,96559.08
2019-04-27T07:52:43.004Z,96561.05
2019-04-27T07:55:11.643Z,96560.73
2019-04-27T07:57:40.144Z,96553.69
2019-04-27T08:00:09.562Z,96557.27
2019-04-27T08:02:39.038Z,96563.55
2019-04-27T08:05:09.372Z,96556.34
2019-04-27T08:07:39.144Z,96553.66
2019-04-27T08:10:09.632Z,96549.23
2019-04-27T08:12:38.706Z,96550.01
2019-04-27T08:15:08.871Z,96558.29
2019-04-27T08:17:37.998Z,96547.11
2019-04-27T08:20:09.078Z,96548.70
2019-04-27T08:22:38.959Z,96548.11
2019-04-27T08:25:09.535Z,96551.27
2019-04-27T08:27:49.342Z,96549.55
2019-04-27T08:30:35.621Z,96545.30
2019-04-27T08:33:05.890Z,96539.98
2019-04-27T08:35:34.461Z,96537.81
2019-04-27T08:38:03.026Z,96536.28
2019-04-27T08:40:31.589Z,96544.91
2019-04-27T08:43:00.135Z,96542.52
2019-04-27T08:45:29.281Z,96552.17
2019-04-27T08:47:59.441Z,96548.87
2019-04-27T08:50:28.608Z,96549.70
2019-04-27T08:52:57.319Z,96549.78
2019-04-27T08:55:26.012Z,96551.13
2019-04-27T08:57:54.543Z,96550.13
2019-04-27T09:00:25.987Z,96550.78
2019-04-27T09:02:54.562Z,96543.38
2019-04-27T09:05:26.112Z,96543.25
2019-04-27T09:08:13.841Z,96543.03
2019-04-27T09:10:44.486Z,96533.42
2019-04-27T09:13:23.195Z,96533.42
2019-04-27T09:16:05.038Z,96546.42
2019-04-27T09:18:34.392Z,96549.87
2019-04-27T09:21:05.746Z,96549.20
2019-04-27T09:23:34.243Z,96546.86
2019-04-27T09:26:02.746Z,96544.55
2019-04-27T09:28:31.226Z,96538.30
2019-04-27T09:30:59.752Z,96543.39
2019-04-27T09:33:28.262Z,96543.63
2019-04-27T09:35:56.859Z,96539.36
2019-04-27T09:38:26.555Z,96542.88
2019-04-27T09:40:57.848Z,96541.84
2019-04-27T09:43:26.364Z,96542.36
2019-04-27T09:45:55.822Z,96538.09
2019-04-27T09:48:25.951Z,96540.35
2019-04-27T09:50:55.983Z,96535.31
2019-04-27T09:53:24.666Z,96536.30
2019-04-27T09:55:53.135Z,96529.69
2019-04-27T09:58:21.717Z,96524.30
2019-04-27T10:00:50.206Z,96534.27
2019-04-27T10:03:18.726Z,96526.16
2019-04-27T10:05:47.244Z,96520.23
2019-04-27T10:08:16.956Z,96513.77
2019-04-27T10:10:46.441Z,96511.33
2019-04-27T10:13:15.780Z,96511.09
2019-04-27T10:15:45.942Z,96507.17
2019-04-27T10:18:16.344Z,96500.16
2019-04-27T10:20:56.919Z,96497.23
2019-04-27T10:23:15.208Z,96497.08
2019-04-27T10:25:43.687Z,96489.48
2019-04-27T10:28:12.205Z,96489.25
2019-04-27T10:30:45.670Z,96485.58
2019-04-27T10:33:15.942Z,96478.02
2019-04-27T10:35:44.197Z,96475.94
2019-04-27T10:38:12.693Z,96476.49
2019-04-27T10:40:41.243Z,96461.66
2019-04-27T10:43:09.757Z,96458.01
2019-04-27T10:45:38.265Z,96455.70
2019-04-27T10:48:06.831Z,96453.45
2019-04-27T10:50:36.557Z,96443.62
2019-04-27T10:53:06.955Z,96442.84
2019-04-27T10:55:36.299Z,96442.75
2019-04-27T10:58:05.447Z,96446.55
2019-04-27T11:00:36.820Z,96442.02
2019-04-27T11:03:06.638Z,96442.13
2019-04-27T11:05:52.858Z,96437.06
2019-04-27T11:08:21.332Z,96429.81
2019-04-27T11:10:49.974Z,96425.59
2019-04-27T11:13:18.564Z,96422.33
2019-04-27T11:15:47.196Z,96423.19
2019-04-27T11:18:16.653Z,96415.09
2019-04-27T11:20:46.879Z,96416.52
2019-04-27T11:23:16.369Z,96424.11
2019-04-27T11:25:46.837Z,96407.52
2019-04-27T11:28:15.727Z,96407.00
2019-04-27T11:30:44.193Z,96397.00
2019-04-27T11:33:12.705Z,96399.41
2019-04-27T11:35:51.337Z,96387.91
2019-04-27T11:38:19.849Z,96386.48
2019-04-27T11:40:48.406Z,96386.84
2019-04-27T11:43:16.898Z,96373.99
2019-04-27T11:45:45.846Z,96381.20
2019-04-27T11:48:16.043Z,96374.91
2019-04-27T11:50:45.870Z,96369.16
2019-04-27T11:53:22.792Z,96367.52
2019-04-27T11:55:45.155Z,96368.52
2019-04-27T11:58:13.686Z,96377.91
2019-04-27T12:00:42.246Z,96366.16
2019-04-27T12:03:10.721Z,96362.25
2019-04-27T12:05:39.244Z,96365.19
2019-04-27T12:08:07.733Z,96360.72
2019-04-27T12:10:36.464Z,96361.70
2019-04-27T12:13:05.766Z,96353.55
2019-04-27T12:15:36.178Z,96350.53
2019-04-27T12:18:08.910Z,96339.95
2019-04-27T12:20:35.871Z,96324.05
2019-04-27T12:23:06.374Z,96326.91
2019-04-27T12:25:37.096Z,96335.61
2019-04-27T12:28:18.906Z,96329.67
2019-04-27T12:30:55.053Z,96319.98
2019-04-27T12:33:23.662Z,96313.79
2019-04-27T12:35:52.228Z,96310.33
2019-04-27T12:38:20.874Z,96311.97
2019-04-27T12:40:49.383Z,96314.41
2019-04-27T12:43:18.029Z,96311.20
2019-04-27T12:45:46.536Z,96302.85
2019-04-27T12:48:15.194Z,96289.73
2019-04-27T12:50:43.763Z,96286.86
2019-04-27T12:53:16.814Z,96296.33
2019-04-27T12:55:52.538Z,96290.19
2019-04-27T12:58:34.222Z,96291.09
2019-04-27T13:01:07.592Z,96284.84
2019-04-27T13:03:36.451Z,96296.04
2019-04-27T13:06:04.991Z,96297.00
2019-04-27T13:08:35.619Z,96296.77
2019-04-27T13:11:05.840Z,96298.73
2019-04-27T13:13:34.151Z,96299.89
2019-04-27T13:16:02.715Z,96302.11
2019-04-27T13:18:31.305Z,96296.13
2019-04-27T13:20:59.784Z,96296.13
2019-04-27T13:23:28.636Z,96305.23
2019-04-27T13:25:57.184Z,96301.78
2019-04-27T13:28:25.748Z,96307.58
2019-04-27T13:30:55.868Z,96304.05
2019-04-27T13:33:26.226Z,96303.11
2019-04-27T13:35:54.848Z,96295.19
2019-04-27T13:38:23.357Z,96287.73
2019-04-27T13:41:08.347Z,96282.47
2019-04-27T13:43:37.907Z,96277.52
2019-04-27T13:46:12.091Z,96277.23
2019-04-27T13:48:58.373Z,96261.78
2019-04-27T13:51:34.637Z,96254.39
2019-04-27T13:54:14.993Z,96251.27
2019-04-27T13:56:33.453Z,96253.88
2019-04-27T13:59:03.337Z,96254.16
2019-04-27T14:01:32.919Z,96251.52
2019-04-27T14:04:01.427Z,96239.17
2019-04-27T14:06:29.923Z,96239.30
2019-04-27T14:08:58.918Z,96231.44
2019-04-27T14:11:29.020Z,96236.13
2019-04-27T14:13:58.211Z,96241.34
2019-04-27T14:16:26.803Z,96231.13
2019-04-27T14:18:55.311Z,96232.80
2019-04-27T14:21:23.836Z,96222.98
2019-04-27T14:23:52.307Z,96219.55
2019-04-27T14:26:20.825Z,96219.53
2019-04-27T14:28:50.004Z,96213.53
2019-04-27T14:31:18.947Z,96206.25
2019-04-27T14:33:48.436Z,96205.45
2019-04-27T14:36:18.274Z,96195.69
2019-04-27T14:38:47.976Z,96191.27
2019-04-27T14:41:19.137Z,96182.72
2019-04-27T14:43:48.265Z,96172.11
2019-04-27T14:46:18.743Z,96176.55
2019-04-27T14:48:47.238Z,96173.94
2019-04-27T14:51:15.795Z,96166.57
2019-04-27T14:53:44.352Z,96156.48
2019-04-27T14:56:12.910Z,96150.11
2019-04-27T14:58:41.468Z,96138.67
2019-04-27T15:01:10.065Z,96125.94
2019-04-27T15:03:38.627Z,96107.78
2019-04-27T15:06:07.102Z,96106.70
2019-04-27T15:08:38.386Z,96114.92
2019-04-27T15:11:10.450Z,96118.94
2019-04-27T15:13:37.944Z,96106.17
2019-04-27T15:16:08.215Z,96100.70
2019-04-27T15:18:39.829Z,96095.81
2019-04-27T15:21:10.385Z,96106.93
2019-04-27T15:23:38.966Z,96117.60
2019-04-27T15:26:07.529Z,96108.17
2019-04-27T15:28:37.706Z,96100.56
2019-04-27T15:31:09.798Z,96086.14
2019-04-27T15:33:46.756Z,96100.51
2019-04-27T15:36:29.496Z,96105.43
2019-04-27T15:38:59.656Z,96107.91
2019-04-27T15:41:38.443Z,96118.79
2019-04-27T15:44:09.442Z,96110.63
2019-04-27T15:46:39.090Z,96108.94
2019-04-27T15:49:11.328Z,96121.27
2019-04-27T15:51:38.261Z,96134.34
2019-04-27T15:54:06.982Z,96142.93
2019-04-27T15:56:36.876Z,96135.61
2019-04-27T15:59:05.686Z,96144.44
2019-04-27T16:01:35.691Z,96158.35
2019-04-27T16:04:07.680Z,96170.30
2019-04-27T16:06:35.205Z,96174.84
2019-04-27T16:09:07.701Z,96194.94
2019-04-27T16:11:36.219Z,96199.03
2019-04-27T16:14:06.721Z,96205.76
2019-04-27T16:16:35.070Z,96199.52
2019-04-27T16:19:08.860Z,96195.77
2019-04-27T16:21:33.939Z,96216.29
2019-04-27T16:24:02.531Z,96234.44
2019-04-27T16:26:31.117Z,96239.64
2019-04-27T16:28:59.718Z,96254.05
2019-04-27T16:31:31.522Z,96257.22
2019-04-27T16:34:02.592Z,96268.09
2019-04-27T16:36:29.065Z,96277.24
2019-04-27T16:39:03.665Z,96280.04
2019-04-27T16:41:37.468Z,96284.36
2019-04-27T16:44:06.984Z,96289.87
2019-04-27T16:46:39.415Z,96283.84
2019-04-27T16:49:07.368Z,96284.27
2019-04-27T16:51:37.855Z,96295.31
2019-04-27T16:54:06.150Z,96299.78
2019-04-27T16:56:34.729Z,96309.53
2019-04-27T16:59:25.830Z,96311.92
2019-04-27T17:01:33.843Z,96310.77
2019-04-27T17:04:06.488Z,96311.89
2019-04-27T17:06:32.810Z,96316.12
2019-04-27T17:09:05.654Z,96315.86
2019-04-27T17:11:31.796Z,96315.19
2019-04-27T17:14:04.882Z,96311.91
2019-04-27T17:16:35.037Z,96309.66
2019-04-27T17:19:09.444Z,96309.14
2019-04-27T17:21:41.113Z,96317.61
2019-04-27T17:24:09.158Z,96328.86
2019-04-27T17:26:40.245Z,96346.03
2019-04-27T17:29:16.118Z,96352.96
2019-04-27T17:31:41.582Z,96360.76
2019-04-27T17:34:10.188Z,96354.16
2019-04-27T17:36:40.297Z,96341.98
2019-04-27T17:39:10.321Z,96334.77
2019-04-27T17:41:42.216Z,96333.27
2019-04-27T17:44:12.846Z,96344.06
2019-04-27T17:46:42.763Z,96360.13
2019-04-27T17:49:09.848Z,96355.81
2019-04-27T17:51:42.912Z,96338.28
2019-04-27T17:54:11.388Z,96342.52
2019-04-27T17:56:48.356Z,96351.52
2019-04-27T17:59:10.312Z,96359.42
2019-04-27T18:01:39.416Z,96363.91
2019-04-27T18:04:10.431Z,96368.52
2019-04-27T18:06:39.013Z,96387.53
2019-04-27T18:09:09.905Z,96392.84
2019-04-27T18:11:38.590Z,96400.94
2019-04-27T18:14:11.173Z,96408.81
2019-04-27T18:16:38.052Z,96418.26
2019-04-27T18:19:11.865Z,96419.31
2019-04-27T18:21:42.186Z,96417.08
2019-04-27T18:24:14.780Z,96418.70
2019-04-27T18:26:49.568Z,96423.05
2019-04-27T18:29:15.182Z,96427.48
2019-04-27T18:31:46.463Z,96432.03
2019-04-27T18:34:15.349Z,96443.41
2019-04-27T18:36:44.963Z,96445.20
2019-04-27T18:39:13.880Z,96446.85
2019-04-27T18:41:49.308Z,96440.63
2019-04-27T18:44:12.683Z,96436.53
2019-04-27T18:46:41.173Z,96441.13
2019-04-27T18:49:11.319Z,96439.33
2019-04-27T18:51:43.882Z,96447.80
2019-04-27T18:54:12.458Z,96445.98
2019-04-27T18:56:41.758Z,96439.89
2019-04-27T18:59:10.324Z,96452.76
2019-04-27T19:01:38.832Z,96467.73
2019-04-27T19:04:08.702Z,96484.54
2019-04-27T19:06:39.005Z,96499.31
2019-04-27T19:09:08.326Z,96513.05
2019-04-27T19:11:38.307Z,96518.74
2019-04-27T19:14:08.327Z,96520.73
2019-04-27T19:16:38.358Z,96508.00
2019-04-27T19:19:08.688Z,96516.22
2019-04-27T19:21:39.129Z,96529.71
2019-04-27T19:24:08.917Z,96529.95
2019-04-27T19:26:39.107Z,96542.30
2019-04-27T19:29:09.258Z,96552.73
2019-04-27T19:31:39.395Z,96563.31
2019-04-27T19:34:07.928Z,96569.41
2019-04-27T19:36:38.548Z,96573.14
2019-04-27T19:39:10.426Z,96582.55
2019-04-27T19:41:38.923Z,96588.13
2019-04-27T19:44:09.914Z,96584.13
2019-04-27T19:46:37.700Z,96594.37
2019-04-27T19:49:06.222Z,96603.27
2019-04-27T19:51:34.820Z,96603.78
2019-04-27T19:54:03.409Z,96610.70
2019-04-27T19:56:31.970Z,96621.14
2019-04-27T19:59:02.105Z,96625.82
2019-04-27T20:01:35.133Z,96631.29
2019-04-27T20:04:05.436Z,96632.75
2019-04-27T20:06:33.998Z,96626.55
2019-04-27T20:09:19.247Z,96629.94
2019-04-27T20:11:47.947Z,96633.89
2019-04-27T20:14:16.488Z,96637.92
2019-04-27T20:16:44.970Z,96641.84
2019-04-27T20:19:13.449Z,96651.16
2019-04-27T20:21:42.050Z,96652.50
2019-04-27T20:24:11.782Z,96652.91
2019-04-27T20:26:40.355Z,96644.11
2019-04-27T20:29:08.849Z,96643.41
2019-04-27T20:31:37.357Z,96651.88
2019-04-27T20:34:05.947Z,96654.88
2019-04-27T20:36:34.519Z,96659.72
2019-04-27T20:39:05.747Z,96657.03
2019-04-27T20:41:33.324Z,96649.41
2019-04-27T20:44:02.421Z,96655.17
2019-04-27T20:46:31.290Z,96650.95
2019-04-27T20:49:01.442Z,96644.62
2019-04-27T20:51:52.460Z,96642.33
2019-04-27T20:54:21.923Z,96647.70
2019-04-27T20:56:51.597Z,96653.52
2019-04-27T20:59:22.096Z,96657.43
2019-04-27T21:01:50.698Z,96667.86
2019-04-27T21:04:21.046Z,96663.83
2019-04-27T21:06:51.159Z,96664.14
2019-04-27T21:09:21.276Z,96664.03
2019-04-27T21:11:49.852Z,96664.03
2019-04-27T21:14:18.494Z,96662.05
2019-04-27T21:16:47.518Z,96670.73
2019-04-27T21:19:16.016Z,96674.77
2019-04-27T21:21:44.516Z,96674.56
2019-04-27T21:24:13.112Z,96668.64
2019-04-27T21:26:42.019Z,96667.08
2019-04-27T21:29:11.709Z,96670.59
2019-04-27T21:31:41.831Z,96665.86
2019-04-27T21:34:10.439Z,96671.83
2019-04-27T21:36:42.259Z,96675.47
2019-04-27T21:39:09.369Z,96668.36
2019-04-27T21:41:37.901Z,96662.67
2019-04-27T21:44:06.391Z,96667.54
2019-04-27T21:46:35.019Z,96666.52
2019-04-27T21:49:03.540Z,96672.91
2019-04-27T21:51:33.808Z,96671.44
2019-04-27T21:54:03.957Z,96675.98
2019-04-27T21:56:32.462Z,96678.80
2019-04-27T21:59:01.115Z,96681.88
2019-04-27T22:01:31.961Z,96679.89
2019-04-27T22:04:01.016Z,96678.23
2019-04-27T22:06:29.856Z,96683.92
2019-04-27T22:08:58.428Z,96675.64
2019-04-27T22:11:26.948Z,96675.91
2019-04-27T22:13:55.573Z,96676.60
2019-04-27T22:16:24.206Z,96684.74
2019-04-27T22:18:52.740Z,96690.28
2019-04-27T22:21:21.764Z,96691.11
2019-04-27T22:23:54.915Z,96684.69
2019-04-27T22:26:23.458Z,96688.50
2019-04-27T22:28:52.246Z,96694.06
2019-04-27T22:31:21.213Z,96703.48
2019-04-27T22:33:52.556Z,96703.86
2019-04-27T22:36:21.152Z,96713.34
2019-04-27T22:38:51.523Z,96713.54
2019-04-27T22:41:24.467Z,96727.70
2019-04-27T22:44:06.747Z,96734.48
2019-04-27T22:46:40.995Z,96746.44
2019-04-27T22:49:10.986Z,96759.00
2019-04-27T22:51:42.716Z,96766.56
2019-04-27T22:54:11.612Z,96783.12
2019-04-27T22:56:42.251Z,96791.02
2019-04-27T22:59:12.505Z,96789.55
2019-04-27T23:02:01.457Z,96794.66
2019-04-27T23:04:34.471Z,96806.14
2019-04-27T23:07:02.984Z,96810.84
2019-04-27T23:09:31.625Z,96824.41
2019-04-27T23:12:01.815Z,96824.62
2019-04-27T23:14:31.293Z,96827.10
2019-04-27T23:17:03.206Z,96827.88
2019-04-27T23:19:31.726Z,96833.62
2019-04-27T23:22:00.799Z,96843.85
2019-04-27T23:24:31.031Z,96851.11
2019-04-27T23:26:59.632Z,96863.23
2019-04-27T23:29:28.131Z,96865.26
2019-04-27T23:32:01.648Z,96876.29
2019-04-27T23:34:31.539Z,96875.80
2019-04-27T23:37:00.059Z,96873.72
2019-04-27T23:39:28.547Z,96881.87
2019-04-27T23:41:57.108Z,96870.63
2019-04-27T23:44:25.607Z,96871.19
2019-04-27T23:46:54.101Z,96869.85
2019-04-27T23:49:22.701Z,96864.83
2019-04-27T23:51:55.240Z,96877.32
2019-04-27T23:54:23.725Z,96883.98
2019-04-27T23:56:52.250Z,96885.81
2019-04-27T23:59:24.901Z,96884.42
